sensor_id;sensor_type;location;lat;lon;timestamp;temperature;humidity
62912;DHT22;49111;51.028;4.218;2023-06-19T00:00:20;22.20;94.70
62912;DHT22;49111;51.028;4.218;2023-06-19T00:02:46;22.20;94.80
62912;DHT22;49111;51.028;4.218;2023-06-19T00:05:12;22.20;95.00
62912;DHT22;49111;51.028;4.218;2023-06-19T00:07:39;22.20;95.20
62912;DHT22;49111;51.028;4.218;2023-06-19T00:10:05;22.10;95.30
62912;DHT22;49111;51.028;4.218;2023-06-19T00:12:32;22.10;95.40
62912;DHT22;49111;51.028;4.218;2023-06-19T00:14:58;22.20;95.50
62912;DHT22;49111;51.028;4.218;2023-06-19T00:17:24;22.20;95.60
62912;DHT22;49111;51.028;4.218;2023-06-19T00:19:52;22.10;95.80
62912;DHT22;49111;51.028;4.218;2023-06-19T00:22:18;22.00;96.10
62912;DHT22;49111;51.028;4.218;2023-06-19T00:24:44;22.00;96.20
62912;DHT22;49111;51.028;4.218;2023-06-19T00:27:10;21.90;96.60
62912;DHT22;49111;51.028;4.218;2023-06-19T00:29:36;21.80;97.00
62912;DHT22;49111;51.028;4.218;2023-06-19T00:32:02;21.80;97.30
62912;DHT22;49111;51.028;4.218;2023-06-19T00:34:29;21.80;97.40
62912;DHT22;49111;51.028;4.218;2023-06-19T00:36:57;21.90;97.20
62912;DHT22;49111;51.028;4.218;2023-06-19T00:39:24;21.90;97.10
62912;DHT22;49111;51.028;4.218;2023-06-19T00:41:56;22.00;97.20
62912;DHT22;49111;51.028;4.218;2023-06-19T00:44:22;22.10;97.10
62912;DHT22;49111;51.028;4.218;2023-06-19T00:46:51;22.00;97.30
62912;DHT22;49111;51.028;4.218;2023-06-19T00:49:19;22.00;97.40
62912;DHT22;49111;51.028;4.218;2023-06-19T00:51:45;22.00;97.50
62912;DHT22;49111;51.028;4.218;2023-06-19T00:54:13;22.00;97.60
62912;DHT22;49111;51.028;4.218;2023-06-19T00:56:39;21.80;98.20
62912;DHT22;49111;51.028;4.218;2023-06-19T00:59:13;21.80;98.40
62912;DHT22;49111;51.028;4.218;2023-06-19T01:01:40;21.80;98.50
62912;DHT22;49111;51.028;4.218;2023-06-19T01:04:06;21.80;98.60
62912;DHT22;49111;51.028;4.218;2023-06-19T01:06:50;21.80;98.70
62912;DHT22;49111;51.028;4.218;2023-06-19T01:09:19;21.70;99.20
62912;DHT22;49111;51.028;4.218;2023-06-19T01:12:16;21.70;99.00
62912;DHT22;49111;51.028;4.218;2023-06-19T01:14:53;21.80;99.10
62912;DHT22;49111;51.028;4.218;2023-06-19T01:17:20;21.70;99.30
62912;DHT22;49111;51.028;4.218;2023-06-19T01:19:47;21.60;99.60
62912;DHT22;49111;51.028;4.218;2023-06-19T01:22:28;21.60;99.90
62912;DHT22;49111;51.028;4.218;2023-06-19T01:24:58;21.60;99.90
62912;DHT22;49111;51.028;4.218;2023-06-19T01:27:25;21.60;99.90
62912;DHT22;49111;51.028;4.218;2023-06-19T01:29:52;21.70;99.90
62912;DHT22;49111;51.028;4.218;2023-06-19T01:35:09;21.70;99.90
62912;DHT22;49111;51.028;4.218;2023-06-19T01:37:38;21.80;99.90
62912;DHT22;49111;51.028;4.218;2023-06-19T01:40:08;21.90;99.90
62912;DHT22;49111;51.028;4.218;2023-06-19T01:42:37;21.80;99.90
62912;DHT22;49111;51.028;4.218;2023-06-19T01:45:04;21.80;99.90
62912;DHT22;49111;51.028;4.218;2023-06-19T01:47:30;21.80;99.90
62912;DHT22;49111;51.028;4.218;2023-06-19T01:49:56;21.80;99.90
62912;DHT22;49111;51.028;4.218;2023-06-19T01:52:23;21.90;99.90
62912;DHT22;49111;51.028;4.218;2023-06-19T01:54:50;21.90;99.90
62912;DHT22;49111;51.028;4.218;2023-06-19T01:57:16;21.90;99.90
62912;DHT22;49111;51.028;4.218;2023-06-19T01:59:42;21.90;99.90
62912;DHT22;49111;51.028;4.218;2023-06-19T02:02:08;21.80;99.90
62912;DHT22;49111;51.028;4.218;2023-06-19T02:04:35;21.90;99.90
62912;DHT22;49111;51.028;4.218;2023-06-19T02:07:02;21.90;99.90
62912;DHT22;49111;51.028;4.218;2023-06-19T02:09:28;21.90;99.90
62912;DHT22;49111;51.028;4.218;2023-06-19T02:11:54;22.00;99.90
62912;DHT22;49111;51.028;4.218;2023-06-19T02:14:20;22.10;99.90
62912;DHT22;49111;51.028;4.218;2023-06-19T02:16:46;21.90;99.90
62912;DHT22;49111;51.028;4.218;2023-06-19T02:19:12;21.90;99.90
62912;DHT22;49111;51.028;4.218;2023-06-19T02:21:38;21.90;99.90
62912;DHT22;49111;51.028;4.218;2023-06-19T02:24:05;21.90;99.90
62912;DHT22;49111;51.028;4.218;2023-06-19T02:26:31;21.80;99.90
62912;DHT22;49111;51.028;4.218;2023-06-19T02:28:57;21.80;99.90
62912;DHT22;49111;51.028;4.218;2023-06-19T02:31:23;21.80;99.90
62912;DHT22;49111;51.028;4.218;2023-06-19T02:33:49;21.80;99.90
62912;DHT22;49111;51.028;4.218;2023-06-19T02:36:18;21.80;99.90
62912;DHT22;49111;51.028;4.218;2023-06-19T02:38:48;21.60;99.90
62912;DHT22;49111;51.028;4.218;2023-06-19T02:41:14;21.70;99.90
62912;DHT22;49111;51.028;4.218;2023-06-19T02:43:44;21.60;99.90
62912;DHT22;49111;51.028;4.218;2023-06-19T02:46:10;21.60;99.90
62912;DHT22;49111;51.028;4.218;2023-06-19T02:48:36;21.60;99.90
62912;DHT22;49111;51.028;4.218;2023-06-19T02:51:02;21.70;99.90
62912;DHT22;49111;51.028;4.218;2023-06-19T02:53:28;21.70;99.90
62912;DHT22;49111;51.028;4.218;2023-06-19T02:55:54;21.80;99.90
62912;DHT22;49111;51.028;4.218;2023-06-19T02:58:21;21.80;99.90
62912;DHT22;49111;51.028;4.218;2023-06-19T03:00:48;21.70;99.90
62912;DHT22;49111;51.028;4.218;2023-06-19T03:03:15;21.70;99.90
62912;DHT22;49111;51.028;4.218;2023-06-19T03:05:42;21.60;99.90
62912;DHT22;49111;51.028;4.218;2023-06-19T03:08:08;21.50;99.90
62912;DHT22;49111;51.028;4.218;2023-06-19T03:10:34;21.50;99.90
62912;DHT22;49111;51.028;4.218;2023-06-19T03:13:01;21.50;99.90
62912;DHT22;49111;51.028;4.218;2023-06-19T03:15:27;21.60;99.90
62912;DHT22;49111;51.028;4.218;2023-06-19T03:17:53;21.50;99.90
62912;DHT22;49111;51.028;4.218;2023-06-19T03:20:21;21.40;99.90
62912;DHT22;49111;51.028;4.218;2023-06-19T03:22:53;21.40;99.90
62912;DHT22;49111;51.028;4.218;2023-06-19T03:25:19;21.40;99.90
62912;DHT22;49111;51.028;4.218;2023-06-19T03:27:46;21.40;99.90
62912;DHT22;49111;51.028;4.218;2023-06-19T03:30:13;21.30;99.90
62912;DHT22;49111;51.028;4.218;2023-06-19T03:32:41;21.40;99.90
62912;DHT22;49111;51.028;4.218;2023-06-19T03:35:10;21.50;99.70
62912;DHT22;49111;51.028;4.218;2023-06-19T03:37:40;21.40;99.50
62912;DHT22;49111;51.028;4.218;2023-06-19T03:40:07;21.10;99.90
62912;DHT22;49111;51.028;4.218;2023-06-19T03:42:41;21.10;99.90
62912;DHT22;49111;51.028;4.218;2023-06-19T03:45:08;20.90;99.90
62912;DHT22;49111;51.028;4.218;2023-06-19T03:47:34;21.00;99.90
62912;DHT22;49111;51.028;4.218;2023-06-19T03:50:00;20.90;99.90
62912;DHT22;49111;51.028;4.218;2023-06-19T03:52:25;20.90;99.90
62912;DHT22;49111;51.028;4.218;2023-06-19T03:54:51;20.90;99.80
62912;DHT22;49111;51.028;4.218;2023-06-19T03:57:18;20.90;99.90
62912;DHT22;49111;51.028;4.218;2023-06-19T03:59:44;20.80;99.70
62912;DHT22;49111;51.028;4.218;2023-06-19T04:02:10;20.80;99.70
62912;DHT22;49111;51.028;4.218;2023-06-19T04:04:36;20.80;99.80
62912;DHT22;49111;51.028;4.218;2023-06-19T04:07:04;20.60;99.90
62912;DHT22;49111;51.028;4.218;2023-06-19T04:09:30;20.60;99.90
62912;DHT22;49111;51.028;4.218;2023-06-19T04:11:55;20.50;99.90
62912;DHT22;49111;51.028;4.218;2023-06-19T04:14:22;20.70;99.90
62912;DHT22;49111;51.028;4.218;2023-06-19T04:16:49;20.60;99.90
62912;DHT22;49111;51.028;4.218;2023-06-19T04:19:15;20.50;99.90
62912;DHT22;49111;51.028;4.218;2023-06-19T04:21:41;20.40;99.90
62912;DHT22;49111;51.028;4.218;2023-06-19T04:24:07;20.40;99.90
62912;DHT22;49111;51.028;4.218;2023-06-19T04:26:35;20.40;99.90
62912;DHT22;49111;51.028;4.218;2023-06-19T04:29:02;20.50;99.90
62912;DHT22;49111;51.028;4.218;2023-06-19T04:31:28;20.40;99.90
62912;DHT22;49111;51.028;4.218;2023-06-19T04:34:01;20.40;99.90
62912;DHT22;49111;51.028;4.218;2023-06-19T04:36:33;20.40;99.90
62912;DHT22;49111;51.028;4.218;2023-06-19T04:38:59;20.40;99.90
62912;DHT22;49111;51.028;4.218;2023-06-19T04:41:26;20.50;99.90
62912;DHT22;49111;51.028;4.218;2023-06-19T04:43:52;20.50;99.90
62912;DHT22;49111;51.028;4.218;2023-06-19T04:46:17;20.50;99.90
62912;DHT22;49111;51.028;4.218;2023-06-19T04:48:46;20.50;99.90
62912;DHT22;49111;51.028;4.218;2023-06-19T04:51:17;20.50;99.90
62912;DHT22;49111;51.028;4.218;2023-06-19T04:53:47;20.50;99.90
62912;DHT22;49111;51.028;4.218;2023-06-19T04:56:14;20.40;99.90
62912;DHT22;49111;51.028;4.218;2023-06-19T04:58:43;20.30;99.90
62912;DHT22;49111;51.028;4.218;2023-06-19T05:01:15;20.40;99.90
62912;DHT22;49111;51.028;4.218;2023-06-19T05:03:44;20.20;99.90
62912;DHT22;49111;51.028;4.218;2023-06-19T05:06:11;20.10;99.90
62912;DHT22;49111;51.028;4.218;2023-06-19T05:08:37;20.20;99.90
62912;DHT22;49111;51.028;4.218;2023-06-19T05:11:03;20.20;99.90
62912;DHT22;49111;51.028;4.218;2023-06-19T05:13:29;20.20;99.90
62912;DHT22;49111;51.028;4.218;2023-06-19T05:15:55;20.10;99.90
62912;DHT22;49111;51.028;4.218;2023-06-19T05:18:23;20.10;99.90
62912;DHT22;49111;51.028;4.218;2023-06-19T05:20:52;20.20;99.90
62912;DHT22;49111;51.028;4.218;2023-06-19T05:23:18;20.10;99.90
62912;DHT22;49111;51.028;4.218;2023-06-19T05:25:44;20.10;99.90
62912;DHT22;49111;51.028;4.218;2023-06-19T05:28:11;20.10;99.90
62912;DHT22;49111;51.028;4.218;2023-06-19T05:30:36;20.10;99.90
62912;DHT22;49111;51.028;4.218;2023-06-19T05:33:02;20.20;99.90
62912;DHT22;49111;51.028;4.218;2023-06-19T05:35:28;20.10;99.90
62912;DHT22;49111;51.028;4.218;2023-06-19T05:37:56;19.90;99.90
62912;DHT22;49111;51.028;4.218;2023-06-19T05:40:21;20.20;99.90
62912;DHT22;49111;51.028;4.218;2023-06-19T05:42:51;20.10;99.90
62912;DHT22;49111;51.028;4.218;2023-06-19T05:45:16;20.20;99.90
62912;DHT22;49111;51.028;4.218;2023-06-19T05:47:42;20.40;99.90
62912;DHT22;49111;51.028;4.218;2023-06-19T05:50:09;20.50;99.90
62912;DHT22;49111;51.028;4.218;2023-06-19T05:52:35;20.60;99.90
62912;DHT22;49111;51.028;4.218;2023-06-19T05:55:00;20.60;99.70
62912;DHT22;49111;51.028;4.218;2023-06-19T05:57:27;20.70;99.60
62912;DHT22;49111;51.028;4.218;2023-06-19T05:59:53;20.70;99.10
62912;DHT22;49111;51.028;4.218;2023-06-19T06:02:20;20.60;99.10
62912;DHT22;49111;51.028;4.218;2023-06-19T06:04:46;20.70;99.00
62912;DHT22;49111;51.028;4.218;2023-06-19T06:07:12;20.60;99.20
62912;DHT22;49111;51.028;4.218;2023-06-19T06:09:39;20.70;99.10
62912;DHT22;49111;51.028;4.218;2023-06-19T06:12:05;20.80;98.90
62912;DHT22;49111;51.028;4.218;2023-06-19T06:14:31;20.80;98.50
62912;DHT22;49111;51.028;4.218;2023-06-19T06:16:57;20.80;98.10
62912;DHT22;49111;51.028;4.218;2023-06-19T06:19:23;20.70;98.20
62912;DHT22;49111;51.028;4.218;2023-06-19T06:21:49;20.80;98.30
62912;DHT22;49111;51.028;4.218;2023-06-19T06:24:15;20.80;98.20
62912;DHT22;49111;51.028;4.218;2023-06-19T06:26:43;20.90;97.90
62912;DHT22;49111;51.028;4.218;2023-06-19T06:29:09;21.00;97.40
62912;DHT22;49111;51.028;4.218;2023-06-19T06:31:38;21.00;97.40
62912;DHT22;49111;51.028;4.218;2023-06-19T06:34:07;21.00;97.20
62912;DHT22;49111;51.028;4.218;2023-06-19T06:36:33;21.30;97.00
62912;DHT22;49111;51.028;4.218;2023-06-19T06:38:59;21.30;96.70
62912;DHT22;49111;51.028;4.218;2023-06-19T06:41:24;21.40;96.60
62912;DHT22;49111;51.028;4.218;2023-06-19T06:43:50;21.40;96.50
62912;DHT22;49111;51.028;4.218;2023-06-19T06:46:16;21.40;96.90
62912;DHT22;49111;51.028;4.218;2023-06-19T06:48:42;21.40;96.80
62912;DHT22;49111;51.028;4.218;2023-06-19T06:51:08;21.60;96.20
62912;DHT22;49111;51.028;4.218;2023-06-19T06:53:36;21.70;95.40
62912;DHT22;49111;51.028;4.218;2023-06-19T06:56:02;21.70;95.30
62912;DHT22;49111;51.028;4.218;2023-06-19T06:58:28;21.60;95.50
62912;DHT22;49111;51.028;4.218;2023-06-19T07:00:55;21.70;94.90
62912;DHT22;49111;51.028;4.218;2023-06-19T07:03:21;21.80;94.50
62912;DHT22;49111;51.028;4.218;2023-06-19T07:05:48;21.70;94.50
62912;DHT22;49111;51.028;4.218;2023-06-19T07:08:14;21.70;94.90
62912;DHT22;49111;51.028;4.218;2023-06-19T07:10:40;21.80;94.90
62912;DHT22;49111;51.028;4.218;2023-06-19T07:13:05;21.90;94.90
62912;DHT22;49111;51.028;4.218;2023-06-19T07:15:31;22.00;94.80
62912;DHT22;49111;51.028;4.218;2023-06-19T07:17:57;22.10;94.60
62912;DHT22;49111;51.028;4.218;2023-06-19T07:20:23;22.20;94.50
62912;DHT22;49111;51.028;4.218;2023-06-19T07:22:51;22.20;94.40
62912;DHT22;49111;51.028;4.218;2023-06-19T07:25:18;22.20;93.90
62912;DHT22;49111;51.028;4.218;2023-06-19T07:27:44;22.20;93.80
62912;DHT22;49111;51.028;4.218;2023-06-19T07:30:10;22.30;93.80
62912;DHT22;49111;51.028;4.218;2023-06-19T07:32:37;22.20;93.70
62912;DHT22;49111;51.028;4.218;2023-06-19T07:35:04;22.30;93.50
62912;DHT22;49111;51.028;4.218;2023-06-19T07:37:30;22.20;93.50
62912;DHT22;49111;51.028;4.218;2023-06-19T07:39:56;22.20;93.50
62912;DHT22;49111;51.028;4.218;2023-06-19T07:42:22;22.30;93.60
62912;DHT22;49111;51.028;4.218;2023-06-19T07:44:49;22.30;93.40
62912;DHT22;49111;51.028;4.218;2023-06-19T07:47:16;22.10;93.90
62912;DHT22;49111;51.028;4.218;2023-06-19T07:49:44;22.10;94.10
62912;DHT22;49111;51.028;4.218;2023-06-19T07:52:10;22.20;94.00
62912;DHT22;49111;51.028;4.218;2023-06-19T07:54:36;22.40;93.80
62912;DHT22;49111;51.028;4.218;2023-06-19T07:57:13;22.40;93.40
62912;DHT22;49111;51.028;4.218;2023-06-19T07:59:39;22.50;93.10
62912;DHT22;49111;51.028;4.218;2023-06-19T08:02:05;22.50;93.20
62912;DHT22;49111;51.028;4.218;2023-06-19T08:04:31;22.50;93.00
62912;DHT22;49111;51.028;4.218;2023-06-19T08:06:57;22.50;93.20
62912;DHT22;49111;51.028;4.218;2023-06-19T08:09:23;22.50;92.80
62912;DHT22;49111;51.028;4.218;2023-06-19T08:11:49;22.60;92.20
62912;DHT22;49111;51.028;4.218;2023-06-19T08:14:15;22.50;92.10
62912;DHT22;49111;51.028;4.218;2023-06-19T08:16:41;22.40;93.10
62912;DHT22;49111;51.028;4.218;2023-06-19T08:19:07;22.40;93.20
62912;DHT22;49111;51.028;4.218;2023-06-19T08:21:32;22.50;93.30
62912;DHT22;49111;51.028;4.218;2023-06-19T08:23:58;22.70;92.60
62912;DHT22;49111;51.028;4.218;2023-06-19T08:26:24;22.70;92.30
62912;DHT22;49111;51.028;4.218;2023-06-19T08:28:50;22.80;92.70
62912;DHT22;49111;51.028;4.218;2023-06-19T08:31:16;23.00;92.40
62912;DHT22;49111;51.028;4.218;2023-06-19T08:33:42;22.80;92.50
62912;DHT22;49111;51.028;4.218;2023-06-19T08:36:08;22.70;93.30
62912;DHT22;49111;51.028;4.218;2023-06-19T08:38:34;22.90;92.70
62912;DHT22;49111;51.028;4.218;2023-06-19T08:40:59;23.30;92.30
62912;DHT22;49111;51.028;4.218;2023-06-19T08:43:25;23.50;91.30
62912;DHT22;49111;51.028;4.218;2023-06-19T08:46:09;23.50;91.50
62912;DHT22;49111;51.028;4.218;2023-06-19T08:48:36;23.50;91.90
62912;DHT22;49111;51.028;4.218;2023-06-19T08:51:03;23.50;91.70
62912;DHT22;49111;51.028;4.218;2023-06-19T08:53:33;23.60;91.60
62912;DHT22;49111;51.028;4.218;2023-06-19T08:56:01;23.60;92.00
62912;DHT22;49111;51.028;4.218;2023-06-19T08:58:27;23.60;91.70
62912;DHT22;49111;51.028;4.218;2023-06-19T09:00:53;23.50;91.60
62912;DHT22;49111;51.028;4.218;2023-06-19T09:03:23;23.70;91.00
62912;DHT22;49111;51.028;4.218;2023-06-19T09:05:49;23.80;91.70
62912;DHT22;49111;51.028;4.218;2023-06-19T09:08:17;23.90;90.30
62912;DHT22;49111;51.028;4.218;2023-06-19T09:10:59;24.10;90.40
62912;DHT22;49111;51.028;4.218;2023-06-19T09:13:26;24.10;90.70
62912;DHT22;49111;51.028;4.218;2023-06-19T09:16:14;24.00;91.00
62912;DHT22;49111;51.028;4.218;2023-06-19T09:18:44;24.00;91.10
62912;DHT22;49111;51.028;4.218;2023-06-19T09:21:19;24.10;90.70
62912;DHT22;49111;51.028;4.218;2023-06-19T09:23:47;24.20;90.40
62912;DHT22;49111;51.028;4.218;2023-06-19T09:26:16;24.00;90.80
62912;DHT22;49111;51.028;4.218;2023-06-19T09:28:44;24.10;91.30
62912;DHT22;49111;51.028;4.218;2023-06-19T09:31:10;24.20;90.30
62912;DHT22;49111;51.028;4.218;2023-06-19T09:33:37;24.30;90.30
62912;DHT22;49111;51.028;4.218;2023-06-19T09:36:05;24.40;89.70
62912;DHT22;49111;51.028;4.218;2023-06-19T09:38:35;24.40;89.80
62912;DHT22;49111;51.028;4.218;2023-06-19T09:41:04;24.50;90.30
62912;DHT22;49111;51.028;4.218;2023-06-19T09:43:37;24.60;90.50
62912;DHT22;49111;51.028;4.218;2023-06-19T09:46:03;24.60;90.00
62912;DHT22;49111;51.028;4.218;2023-06-19T09:48:34;24.60;90.00
62912;DHT22;49111;51.028;4.218;2023-06-19T09:51:23;24.70;89.00
62912;DHT22;49111;51.028;4.218;2023-06-19T09:53:54;24.80;87.60
62912;DHT22;49111;51.028;4.218;2023-06-19T09:56:22;24.80;88.00
62912;DHT22;49111;51.028;4.218;2023-06-19T09:58:52;24.90;88.80
62912;DHT22;49111;51.028;4.218;2023-06-19T10:01:19;25.00;88.90
62912;DHT22;49111;51.028;4.218;2023-06-19T10:03:45;25.10;89.20
62912;DHT22;49111;51.028;4.218;2023-06-19T10:06:15;25.30;88.90
62912;DHT22;49111;51.028;4.218;2023-06-19T10:08:43;25.30;89.80
62912;DHT22;49111;51.028;4.218;2023-06-19T10:11:10;25.40;88.60
62912;DHT22;49111;51.028;4.218;2023-06-19T10:13:38;25.40;87.60
62912;DHT22;49111;51.028;4.218;2023-06-19T10:16:27;25.40;87.40
62912;DHT22;49111;51.028;4.218;2023-06-19T10:18:54;25.40;89.40
62912;DHT22;49111;51.028;4.218;2023-06-19T10:21:21;25.50;90.10
62912;DHT22;49111;51.028;4.218;2023-06-19T10:23:57;25.50;90.10
62912;DHT22;49111;51.028;4.218;2023-06-19T10:26:33;25.70;88.00
62912;DHT22;49111;51.028;4.218;2023-06-19T10:29:00;25.80;87.40
62912;DHT22;49111;51.028;4.218;2023-06-19T10:31:26;25.70;85.90
62912;DHT22;49111;51.028;4.218;2023-06-19T10:33:54;25.80;85.70
62912;DHT22;49111;51.028;4.218;2023-06-19T10:36:22;25.80;86.30
62912;DHT22;49111;51.028;4.218;2023-06-19T10:38:51;25.90;85.80
62912;DHT22;49111;51.028;4.218;2023-06-19T10:41:21;26.10;86.30
62912;DHT22;49111;51.028;4.218;2023-06-19T10:44:00;26.20;85.20
62912;DHT22;49111;51.028;4.218;2023-06-19T10:46:31;26.40;82.70
62912;DHT22;49111;51.028;4.218;2023-06-19T10:48:58;26.60;82.70
62912;DHT22;49111;51.028;4.218;2023-06-19T10:51:39;26.60;83.70
62912;DHT22;49111;51.028;4.218;2023-06-19T10:54:06;26.70;82.60
62912;DHT22;49111;51.028;4.218;2023-06-19T10:56:33;26.80;81.70
62912;DHT22;49111;51.028;4.218;2023-06-19T10:59:01;26.90;80.80
62912;DHT22;49111;51.028;4.218;2023-06-19T11:01:35;26.90;80.60
62912;DHT22;49111;51.028;4.218;2023-06-19T11:04:10;26.90;81.50
62912;DHT22;49111;51.028;4.218;2023-06-19T11:06:38;26.90;81.90
62912;DHT22;49111;51.028;4.218;2023-06-19T11:09:05;27.00;81.70
62912;DHT22;49111;51.028;4.218;2023-06-19T11:11:45;27.10;81.00
62912;DHT22;49111;51.028;4.218;2023-06-19T11:14:12;27.10;80.70
62912;DHT22;49111;51.028;4.218;2023-06-19T11:16:41;27.20;80.20
62912;DHT22;49111;51.028;4.218;2023-06-19T11:19:15;27.40;79.60
62912;DHT22;49111;51.028;4.218;2023-06-19T11:21:45;27.40;82.10
62912;DHT22;49111;51.028;4.218;2023-06-19T11:24:13;27.40;80.70
62912;DHT22;49111;51.028;4.218;2023-06-19T11:26:47;27.40;79.90
62912;DHT22;49111;51.028;4.218;2023-06-19T11:29:19;27.40;78.90
62912;DHT22;49111;51.028;4.218;2023-06-19T11:31:46;27.40;76.70
62912;DHT22;49111;51.028;4.218;2023-06-19T11:34:13;27.30;78.50
62912;DHT22;49111;51.028;4.218;2023-06-19T11:36:40;27.30;78.00
62912;DHT22;49111;51.028;4.218;2023-06-19T11:39:14;27.40;78.00
62912;DHT22;49111;51.028;4.218;2023-06-19T11:41:43;27.50;77.90
62912;DHT22;49111;51.028;4.218;2023-06-19T11:44:10;27.40;79.70
62912;DHT22;49111;51.028;4.218;2023-06-19T11:46:36;27.50;77.60
62912;DHT22;49111;51.028;4.218;2023-06-19T11:49:16;27.50;77.40
62912;DHT22;49111;51.028;4.218;2023-06-19T11:51:46;27.40;76.10
62912;DHT22;49111;51.028;4.218;2023-06-19T11:54:14;27.40;76.60
62912;DHT22;49111;51.028;4.218;2023-06-19T11:56:41;27.50;76.40
62912;DHT22;49111;51.028;4.218;2023-06-19T11:59:07;27.60;77.20
62912;DHT22;49111;51.028;4.218;2023-06-19T12:01:34;27.60;77.40
62912;DHT22;49111;51.028;4.218;2023-06-19T12:04:01;27.50;75.90
62912;DHT22;49111;51.028;4.218;2023-06-19T12:06:28;27.30;78.50
62912;DHT22;49111;51.028;4.218;2023-06-19T12:08:54;27.30;78.80
62912;DHT22;49111;51.028;4.218;2023-06-19T12:11:20;27.40;79.50
62912;DHT22;49111;51.028;4.218;2023-06-19T12:13:46;27.50;75.30
62912;DHT22;49111;51.028;4.218;2023-06-19T12:16:12;27.80;75.90
62912;DHT22;49111;51.028;4.218;2023-06-19T12:18:38;27.90;75.90
62912;DHT22;49111;51.028;4.218;2023-06-19T12:21:03;27.80;74.70
62912;DHT22;49111;51.028;4.218;2023-06-19T12:23:29;27.90;74.80
62912;DHT22;49111;51.028;4.218;2023-06-19T12:25:56;27.90;74.30
62912;DHT22;49111;51.028;4.218;2023-06-19T12:28:22;28.10;75.00
62912;DHT22;49111;51.028;4.218;2023-06-19T12:30:48;28.20;72.20
62912;DHT22;49111;51.028;4.218;2023-06-19T12:33:19;28.30;73.40
62912;DHT22;49111;51.028;4.218;2023-06-19T12:35:46;28.30;72.60
62912;DHT22;49111;51.028;4.218;2023-06-19T12:38:13;28.20;72.50
62912;DHT22;49111;51.028;4.218;2023-06-19T12:40:39;28.20;75.40
62912;DHT22;49111;51.028;4.218;2023-06-19T12:43:05;28.30;73.80
62912;DHT22;49111;51.028;4.218;2023-06-19T12:45:31;28.60;74.70
62912;DHT22;49111;51.028;4.218;2023-06-19T12:47:57;28.60;75.60
62912;DHT22;49111;51.028;4.218;2023-06-19T12:50:23;28.70;74.70
62912;DHT22;49111;51.028;4.218;2023-06-19T12:52:50;28.90;74.20
62912;DHT22;49111;51.028;4.218;2023-06-19T12:55:16;29.00;72.50
62912;DHT22;49111;51.028;4.218;2023-06-19T12:57:42;29.20;72.30
62912;DHT22;49111;51.028;4.218;2023-06-19T13:00:10;29.30;72.00
62912;DHT22;49111;51.028;4.218;2023-06-19T13:02:38;29.40;70.60
62912;DHT22;49111;51.028;4.218;2023-06-19T13:05:06;29.50;71.50
62912;DHT22;49111;51.028;4.218;2023-06-19T13:07:32;29.60;68.50
62912;DHT22;49111;51.028;4.218;2023-06-19T13:09:58;29.70;68.50
62912;DHT22;49111;51.028;4.218;2023-06-19T13:12:24;29.50;68.40
62912;DHT22;49111;51.028;4.218;2023-06-19T13:14:51;29.40;68.30
62912;DHT22;49111;51.028;4.218;2023-06-19T13:17:18;29.30;69.50
62912;DHT22;49111;51.028;4.218;2023-06-19T13:19:45;29.30;70.10
62912;DHT22;49111;51.028;4.218;2023-06-19T13:22:11;29.50;69.40
62912;DHT22;49111;51.028;4.218;2023-06-19T13:24:37;29.60;71.10
62912;DHT22;49111;51.028;4.218;2023-06-19T13:27:02;29.70;68.10
62912;DHT22;49111;51.028;4.218;2023-06-19T13:29:28;29.80;69.00
62912;DHT22;49111;51.028;4.218;2023-06-19T13:31:54;29.90;70.70
62912;DHT22;49111;51.028;4.218;2023-06-19T13:34:20;30.00;68.90
62912;DHT22;49111;51.028;4.218;2023-06-19T13:36:47;30.20;68.00
62912;DHT22;49111;51.028;4.218;2023-06-19T13:39:13;30.30;66.40
62912;DHT22;49111;51.028;4.218;2023-06-19T13:41:39;30.40;66.90
62912;DHT22;49111;51.028;4.218;2023-06-19T13:44:05;30.40;65.70
62912;DHT22;49111;51.028;4.218;2023-06-19T13:46:31;30.30;66.00
62912;DHT22;49111;51.028;4.218;2023-06-19T13:48:58;30.30;66.10
62912;DHT22;49111;51.028;4.218;2023-06-19T13:51:24;30.10;66.70
62912;DHT22;49111;51.028;4.218;2023-06-19T13:53:51;30.10;65.80
62912;DHT22;49111;51.028;4.218;2023-06-19T13:56:17;29.90;65.40
62912;DHT22;49111;51.028;4.218;2023-06-19T13:58:43;29.70;66.10
62912;DHT22;49111;51.028;4.218;2023-06-19T14:01:09;29.80;66.20
62912;DHT22;49111;51.028;4.218;2023-06-19T14:03:37;29.80;67.00
62912;DHT22;49111;51.028;4.218;2023-06-19T14:06:04;30.00;64.50
62912;DHT22;49111;51.028;4.218;2023-06-19T14:08:30;30.10;66.80
62912;DHT22;49111;51.028;4.218;2023-06-19T14:10:56;30.30;65.40
62912;DHT22;49111;51.028;4.218;2023-06-19T14:13:23;30.50;64.20
62912;DHT22;49111;51.028;4.218;2023-06-19T14:15:49;30.60;63.80
62912;DHT22;49111;51.028;4.218;2023-06-19T14:18:15;30.50;64.20
62912;DHT22;49111;51.028;4.218;2023-06-19T14:20:40;30.40;66.30
62912;DHT22;49111;51.028;4.218;2023-06-19T14:23:09;30.50;67.20
62912;DHT22;49111;51.028;4.218;2023-06-19T14:25:35;30.50;65.70
62912;DHT22;49111;51.028;4.218;2023-06-19T14:28:01;30.40;63.60
62912;DHT22;49111;51.028;4.218;2023-06-19T14:30:26;30.20;64.70
62912;DHT22;49111;51.028;4.218;2023-06-19T14:32:52;30.20;65.20
62912;DHT22;49111;51.028;4.218;2023-06-19T14:35:18;30.20;65.80
62912;DHT22;49111;51.028;4.218;2023-06-19T14:37:44;30.50;66.20
62912;DHT22;49111;51.028;4.218;2023-06-19T14:40:10;30.70;64.20
62912;DHT22;49111;51.028;4.218;2023-06-19T14:42:36;30.90;65.10
62912;DHT22;49111;51.028;4.218;2023-06-19T14:45:02;31.10;63.50
62912;DHT22;49111;51.028;4.218;2023-06-19T14:47:28;31.20;65.30
62912;DHT22;49111;51.028;4.218;2023-06-19T14:49:54;31.20;62.00
62912;DHT22;49111;51.028;4.218;2023-06-19T14:52:20;31.30;64.30
62912;DHT22;49111;51.028;4.218;2023-06-19T14:54:47;31.50;63.00
62912;DHT22;49111;51.028;4.218;2023-06-19T14:57:13;31.60;63.70
62912;DHT22;49111;51.028;4.218;2023-06-19T14:59:38;31.70;61.90
62912;DHT22;49111;51.028;4.218;2023-06-19T15:02:05;31.50;62.30
62912;DHT22;49111;51.028;4.218;2023-06-19T15:04:33;31.40;63.00
62912;DHT22;49111;51.028;4.218;2023-06-19T15:06:59;31.30;63.80
62912;DHT22;49111;51.028;4.218;2023-06-19T15:09:25;31.10;63.60
62912;DHT22;49111;51.028;4.218;2023-06-19T15:11:54;31.00;64.40
62912;DHT22;49111;51.028;4.218;2023-06-19T15:14:19;30.90;64.60
62912;DHT22;49111;51.028;4.218;2023-06-19T15:16:46;31.10;63.90
62912;DHT22;49111;51.028;4.218;2023-06-19T15:19:12;31.10;64.30
62912;DHT22;49111;51.028;4.218;2023-06-19T15:21:38;31.10;64.20
62912;DHT22;49111;51.028;4.218;2023-06-19T15:24:04;31.10;65.60
62912;DHT22;49111;51.028;4.218;2023-06-19T15:26:29;31.10;63.30
62912;DHT22;49111;51.028;4.218;2023-06-19T15:28:56;31.10;63.80
62912;DHT22;49111;51.028;4.218;2023-06-19T15:31:22;31.00;64.20
62912;DHT22;49111;51.028;4.218;2023-06-19T15:33:49;30.90;63.50